Time;durP1;ratioP1;P1;durP2;ratioP2;P2;SDS_P1;SDS_P2;PMS_P1;PMS_P2;Temp;Humidity;BMP_temperature;BMP_pressure;BME280_temperature;BME280_humidity;BME280_pressure;Samples;Min_cycle;Max_cycle;Signal;HPM_P1;HPM_P2
2022/04/13 00:01:49;;;;;;;12.57;8.45;;;;;;;12.81;100.00;101077.16;2614489;36;20299;-55
2022/04/13 00:04:21;;;;;;;12.85;8.32;;;;;;;12.74;100.00;101073.34;2612790;36;20077;-54
2022/04/13 00:06:49;;;;;;;11.52;8.38;;;;;;;12.68;100.00;101079.31;2613358;36;20690;-57
2022/04/13 00:09:17;;;;;;;18.75;8.55;;;;;;;12.61;100.00;101081.72;2612902;36;20053;-54
2022/04/13 00:11:46;;;;;;;16.00;8.85;;;;;;;12.64;100.00;101080.59;2613078;36;20118;-51
2022/04/13 00:14:14;;;;;;;13.65;8.38;;;;;;;12.70;100.00;101080.03;2613310;31;20038;-52
2022/04/13 00:16:42;;;;;;;12.38;8.00;;;;;;;12.64;100.00;101080.59;2614851;36;20388;-51
2022/04/13 00:19:11;;;;;;;13.13;8.80;;;;;;;12.62;100.00;101089.69;2614150;31;20055;-53
2022/04/13 00:21:42;;;;;;;12.80;8.35;;;;;;;12.65;100.00;101084.97;2613843;36;20560;-54
2022/04/13 00:24:12;;;;;;;15.32;8.70;;;;;;;12.58;100.00;101084.72;2614071;31;20114;-54
2022/04/13 00:26:40;;;;;;;14.25;8.20;;;;;;;12.54;100.00;101078.75;2612979;36;20027;-52
2022/04/13 00:29:09;;;;;;;14.07;8.27;;;;;;;12.46;100.00;101089.44;2613844;36;20138;-54
2022/04/13 00:31:38;;;;;;;17.83;8.88;;;;;;;12.45;100.00;101090.41;2613725;36;20031;-53
2022/04/13 00:34:06;;;;;;;16.75;8.85;;;;;;;12.48;100.00;101100.91;2612637;36;20031;-55
2022/04/13 00:36:34;;;;;;;12.55;8.10;;;;;;;12.47;100.00;101091.13;2613360;36;20037;-55
2022/04/13 00:39:05;;;;;;;14.52;8.18;;;;;;;12.50;100.00;101092.69;2613948;36;20035;-54
2022/04/13 00:41:34;;;;;;;14.00;8.60;;;;;;;12.50;100.00;101100.78;2614285;36;20030;-56
2022/04/13 00:44:06;;;;;;;11.73;8.20;;;;;;;12.45;100.00;101095.81;2614135;36;20065;-50
2022/04/13 00:46:35;;;;;;;15.95;8.45;;;;;;;12.40;100.00;101098.09;2614129;36;20085;-52
2022/04/13 00:49:04;;;;;;;13.60;8.68;;;;;;;12.39;100.00;101102.63;2613641;36;20174;-53
2022/04/13 00:51:32;;;;;;;;;;;;;;;12.37;100.00;101106.47;2614104;36;20058;-53
2022/04/13 00:54:05;;;;;;;14.32;9.45;;;;;;;12.29;100.00;101101.78;2613273;36;19985;-54
2022/04/13 00:56:35;;;;;;;15.70;8.80;;;;;;;12.27;100.00;101096.50;2614367;31;20134;-56
2022/04/13 00:59:09;;;;;;;13.73;8.30;;;;;;;12.15;100.00;101105.75;2613074;36;20871;-53
2022/04/13 01:01:39;;;;;;;13.18;8.85;;;;;;;12.09;100.00;101109.00;2613718;36;20038;-52
2022/04/13 01:04:08;;;;;;;15.50;9.55;;;;;;;12.06;100.00;101115.53;2611360;36;20535;-54
2022/04/13 01:06:37;;;;;;;;;;;;;;;12.03;100.00;101114.97;2613910;31;20133;-55
2022/04/13 01:09:08;;;;;;;17.52;8.95;;;;;;;12.03;100.00;101121.22;2613170;36;19951;-51
2022/04/13 01:11:37;;;;;;;10.55;8.50;;;;;;;12.08;100.00;101118.09;2613870;31;20122;-51
2022/04/13 01:14:05;;;;;;;11.82;8.05;;;;;;;12.00;100.00;101126.00;2612984;36;20478;-54
2022/04/13 01:16:34;;;;;;;13.65;8.90;;;;;;;11.82;100.00;101129.38;2614421;36;20088;-55
2022/04/13 01:19:02;;;;;;;;;;;;;;;11.80;100.00;101134.03;2613984;36;20527;-54
2022/04/13 01:21:45;;;;;;;14.02;9.00;;;;;;;11.78;100.00;101137.84;2613462;36;20093;-52
2022/04/13 01:24:17;;;;;;;12.70;9.07;;;;;;;11.67;100.00;101136.13;2614152;36;20122;-57
2022/04/13 01:26:45;;;;;;;14.88;9.50;;;;;;;11.64;100.00;101144.50;2614168;36;20060;-51
2022/04/13 01:29:14;;;;;;;13.95;9.20;;;;;;;11.71;100.00;101151.03;2612922;36;20057;-52
2022/04/13 01:31:43;;;;;;;14.55;9.00;;;;;;;11.71;100.00;101156.44;2614513;36;20037;-55
2022/04/13 01:34:14;;;;;;;13.57;9.20;;;;;;;11.63;100.00;101161.63;2613430;36;20116;-52
2022/04/13 01:36:42;;;;;;;19.23;10.27;;;;;;;11.46;100.00;101165.84;2613777;36;20070;-52
2022/04/13 01:39:13;;;;;;;13.40;9.40;;;;;;;11.50;100.00;101173.53;2613387;36;20126;-51
2022/04/13 01:41:44;;;;;;;18.65;10.10;;;;;;;11.48;100.00;101169.25;2614013;36;20077;-54
2022/04/13 01:44:15;;;;;;;16.80;10.25;;;;;;;11.44;100.00;101168.66;2613872;31;20081;-55
2022/04/13 01:46:43;;;;;;;13.35;9.38;;;;;;;11.37;100.00;101170.19;2614503;36;20500;-52
2022/04/13 01:49:11;;;;;;;13.05;9.93;;;;;;;11.32;100.00;101175.09;2614709;36;20547;-55
2022/04/13 01:51:40;;;;;;;17.88;9.65;;;;;;;11.22;100.00;101175.06;2614304;36;20765;-55
2022/04/13 01:54:08;;;;;;;14.43;11.45;;;;;;;11.09;100.00;101186.03;2614329;36;20042;-50
2022/04/13 01:56:36;;;;;;;12.43;9.70;;;;;;;11.03;100.00;101181.19;2613967;36;20031;-54
2022/04/13 01:59:07;;;;;;;14.32;10.35;;;;;;;11.01;100.00;101183.13;2614145;31;20967;-55
2022/04/13 02:01:36;;;;;;;16.23;10.05;;;;;;;10.97;100.00;101184.41;2613678;36;20065;-53
2022/04/13 02:04:05;;;;;;;15.73;9.95;;;;;;;10.92;100.00;101189.31;2615169;31;20030;-51
2022/04/13 02:06:34;;;;;;;15.98;10.80;;;;;;;10.87;100.00;101182.47;2613278;36;20047;-54
2022/04/13 02:09:02;;;;;;;14.20;10.43;;;;;;;10.82;100.00;101187.41;2614580;36;20042;-55
2022/04/13 02:11:31;;;;;;;13.13;10.05;;;;;;;10.77;100.00;101186.94;2613919;36;20033;-53
2022/04/13 02:13:59;;;;;;;18.00;10.68;;;;;;;10.75;100.00;101186.22;2613693;36;20110;-52
2022/04/13 02:16:30;;;;;;;16.92;10.52;;;;;;;10.69;100.00;101189.44;2613176;31;20174;-54
2022/04/13 02:18:58;;;;;;;14.13;10.23;;;;;;;10.68;100.00;101190.41;2615022;36;20122;-47
2022/04/13 02:21:27;;;;;;;15.75;10.77;;;;;;;10.71;100.00;101203.59;2614035;36;20645;-54
2022/04/13 02:23:55;;;;;;;13.88;9.82;;;;;;;10.71;100.00;101195.53;2613999;36;20077;-50
2022/04/13 02:26:23;;;;;;;17.48;9.68;;;;;;;10.68;100.00;101193.09;2614921;31;20038;-53
2022/04/13 02:28:53;;;;;;;14.43;9.90;;;;;;;10.68;100.00;101187.72;2613395;36;20053;-52
2022/04/13 02:31:21;;;;;;;16.77;10.57;;;;;;;10.64;100.00;101192.50;2614803;36;20058;-53
2022/04/13 02:33:55;;;;;;;17.00;10.02;;;;;;;10.61;100.00;101199.97;2613313;36;20059;-55
2022/04/13 02:36:24;;;;;;;15.48;10.90;;;;;;;10.60;100.00;101196.44;2614173;31;20184;-54
2022/04/13 02:38:53;;;;;;;22.27;10.85;;;;;;;10.60;100.00;101198.25;2612788;36;20026;-54
2022/04/13 02:41:21;;;;;;;;;;;;;;;10.62;100.00;101201.69;2614835;36;20064;-55
2022/04/13 02:43:49;;;;;;;18.98;11.15;;;;;;;10.62;100.00;101201.69;2613665;36;19966;-51
2022/04/13 02:46:17;;;;;;;16.55;10.45;;;;;;;10.63;100.00;101193.50;2614106;31;20166;-50
2022/04/13 02:48:46;;;;;;;16.25;11.10;;;;;;;10.63;100.00;101211.47;2613825;36;20038;-54
2022/04/13 02:51:16;;;;;;;18.17;11.50;;;;;;;10.67;100.00;101208.41;2614123;36;20031;-52
2022/04/13 02:53:45;;;;;;;15.73;9.95;;;;;;;10.65;100.00;101202.28;2614102;36;20118;-50
2022/04/13 02:56:14;;;;;;;19.45;11.55;;;;;;;10.66;100.00;101205.84;2614125;31;20121;-52
2022/04/13 02:58:42;;;;;;;16.02;10.05;;;;;;;10.67;100.00;101197.66;2614584;31;20125;-53
2022/04/13 03:01:10;;;;;;;14.93;10.18;;;;;;;10.69;100.00;101210.97;2613785;36;20141;-54
2022/04/13 03:03:38;;;;;;;15.77;9.60;;;;;;;10.69;100.00;101213.66;2613051;36;20046;-54
2022/04/13 03:06:07;;;;;;;15.15;10.73;;;;;;;10.68;100.00;101209.25;2613273;31;20534;-56
2022/04/13 03:08:38;;;;;;;16.10;10.73;;;;;;;10.64;100.00;101205.09;2613736;36;20069;-51
2022/04/13 03:11:07;;;;;;;17.85;12.38;;;;;;;10.66;100.00;101208.53;2613977;36;20041;-53
2022/04/13 03:13:35;;;;;;;19.70;11.80;;;;;;;10.72;100.00;101210.72;2614320;36;20307;-53
2022/04/13 03:16:03;;;;;;;15.60;11.25;;;;;;;10.79;100.00;101214.59;2613973;36;20038;-50
2022/04/13 03:18:31;;;;;;;22.75;12.00;;;;;;;10.94;100.00;101216.97;2614659;36;20065;-53
2022/04/13 03:21:00;;;;;;;23.63;11.88;;;;;;;10.90;100.00;101219.06;2613860;36;20081;-51
2022/04/13 03:23:28;;;;;;;16.95;11.23;;;;;;;10.91;100.00;101219.91;2613905;36;20084;-53
2022/04/13 03:25:59;;;;;;;18.75;11.82;;;;;;;10.87;100.00;101222.88;2614495;36;20039;-57
2022/04/13 03:28:27;;;;;;;19.42;12.20;;;;;;;10.89;100.00;101224.59;2613691;36;20042;-54
2022/04/13 03:30:56;;;;;;;21.70;11.35;;;;;;;10.92;100.00;101221.63;2613838;36;20047;-56
2022/04/13 03:33:24;;;;;;;16.77;10.90;;;;;;;10.86;100.00;101229.25;2613014;36;20031;-51
2022/04/13 03:35:53;;;;;;;15.33;11.50;;;;;;;10.91;100.00;101223.47;2614781;31;20122;-53
2022/04/13 03:38:21;;;;;;;18.08;11.73;;;;;;;10.97;100.00;101224.81;2613365;36;20339;-51
2022/04/13 03:40:49;;;;;;;23.45;12.38;;;;;;;10.97;100.00;101235.59;2613868;36;20042;-53
2022/04/13 03:43:20;;;;;;;25.90;13.07;;;;;;;10.99;100.00;101237.13;2613518;36;20072;-54
2022/04/13 03:45:48;;;;;;;22.30;13.02;;;;;;;11.04;100.00;101236.75;2614112;36;20031;-59
2022/04/13 03:48:16;;;;;;;23.27;13.10;;;;;;;11.15;100.00;101236.69;2613743;36;20483;-49
2022/04/13 03:50:45;;;;;;;23.73;14.13;;;;;;;11.12;100.00;101239.66;2614474;36;20157;-55
2022/04/13 03:53:13;;;;;;;18.40;12.55;;;;;;;10.99;100.00;101234.44;2613029;36;20130;-54
2022/04/13 03:55:41;;;;;;;18.98;12.45;;;;;;;10.97;100.00;101239.13;2613888;31;20035;-54
2022/04/13 03:58:10;;;;;;;23.13;14.32;;;;;;;11.01;100.00;101237.00;2612834;36;20095;-52
2022/04/13 04:00:42;;;;;;;19.45;12.95;;;;;;;11.04;100.00;101250.22;2614090;36;20034;-53
2022/04/13 04:03:10;;;;;;;22.20;14.52;;;;;;;11.11;100.00;101254.09;2613551;36;20110;-52
2022/04/13 04:05:39;;;;;;;20.23;15.00;;;;;;;11.19;100.00;101265.09;2613313;36;20055;-50
2022/04/13 04:08:08;;;;;;;24.25;15.43;;;;;;;11.17;100.00;101275.16;2613432;36;20399;-53
2022/04/13 04:10:36;;;;;;;21.63;13.75;;;;;;;11.07;100.00;101273.34;2613174;36;20038;-53
2022/04/13 04:13:05;;;;;;;26.08;14.82;;;;;;;11.13;100.00;101279.09;2614267;36;20056;-54
2022/04/13 04:15:33;;;;;;;23.63;14.43;;;;;;;11.06;100.00;101280.59;2614346;36;20150;-51
2022/04/13 04:18:05;;;;;;;23.33;14.43;;;;;;;11.07;100.00;101276.91;2615167;36;20186;-54
2022/04/13 04:20:33;;;;;;;22.95;15.32;;;;;;;11.13;100.00;101284.47;2613729;36;20489;-55
2022/04/13 04:23:01;;;;;;;23.83;15.40;;;;;;;11.22;100.00;101277.47;2613262;36;20212;-54
2022/04/13 04:25:29;;;;;;;21.52;14.38;;;;;;;11.11;100.00;101278.34;2613752;36;20137;-54
2022/04/13 04:27:58;;;;;;;24.05;15.65;;;;;;;11.02;100.00;101273.75;2614038;31;20529;-55
2022/04/13 04:30:26;;;;;;;19.10;15.85;;;;;;;10.94;100.00;101273.53;2612115;36;20117;-52
2022/04/13 04:32:54;;;;;;;25.83;16.42;;;;;;;10.90;100.00;101280.16;2612222;36;20121;-52
2022/04/13 04:35:25;;;;;;;23.05;15.57;;;;;;;10.99;100.00;101287.47;2612631;36;20066;-51
2022/04/13 04:37:53;;;;;;;22.10;15.02;;;;;;;10.84;100.00;101285.06;2612882;36;20513;-54
2022/04/13 04:40:21;;;;;;;26.35;16.63;;;;;;;10.86;100.00;101290.31;2613370;36;20594;-53
2022/04/13 04:42:51;;;;;;;22.40;15.47;;;;;;;10.79;100.00;101290.00;2613379;36;20054;-55
2022/04/13 04:45:19;;;;;;;;;;;;;;;10.83;100.00;101295.97;2612814;36;20382;-50
2022/04/13 04:47:49;;;;;;;26.03;16.37;;;;;;;10.65;100.00;101299.19;2613861;31;19994;-52
2022/04/13 04:50:17;;;;;;;;;;;;;;;10.60;100.00;101297.84;2615229;36;20683;-50
2022/04/13 04:52:49;;;;;;;20.53;15.93;;;;;;;10.65;100.00;101311.81;2613349;31;20037;-51
2022/04/13 04:55:19;;;;;;;24.90;17.10;;;;;;;10.59;100.00;101306.94;2614404;36;20122;-50
2022/04/13 04:57:48;;;;;;;25.63;17.42;;;;;;;10.62;100.00;101310.22;2614231;36;20551;-51
2022/04/13 05:00:20;;;;;;;25.75;17.05;;;;;;;10.59;100.00;101306.94;2613302;36;20046;-51
2022/04/13 05:02:48;;;;;;;26.55;18.23;;;;;;;10.66;100.00;101308.16;2614560;36;20412;-55
2022/04/13 05:05:17;;;;;;;22.63;16.98;;;;;;;10.73;100.00;101314.72;2611704;36;20084;-55
2022/04/13 05:07:49;;;;;;;26.23;17.73;;;;;;;10.83;100.00;101326.44;2613900;36;20030;-53
2022/04/13 05:10:19;;;;;;;26.10;17.38;;;;;;;10.90;100.00;101331.34;2614060;36;20046;-54
2022/04/13 05:12:53;;;;;;;22.35;16.25;;;;;;;10.95;100.00;101329.94;2611004;36;20038;-51
2022/04/13 05:15:22;;;;;;;23.58;17.23;;;;;;;11.22;100.00;101336.75;2612852;36;20042;-52
2022/04/13 05:17:50;;;;;;;24.88;16.75;;;;;;;11.26;100.00;101338.16;2613276;36;20038;-52
2022/04/13 05:20:18;;;;;;;21.30;17.20;;;;;;;11.25;100.00;101341.00;2613959;36;20634;-53
2022/04/13 05:22:49;;;;;;;18.67;14.48;;;;;;;11.35;100.00;101341.94;2613196;36;20632;-53
2022/04/13 05:25:18;;;;;;;22.73;15.10;;;;;;;11.40;100.00;101350.50;2615024;36;20054;-51
2022/04/13 05:27:47;;;;;;;22.45;15.55;;;;;;;11.43;100.00;101355.63;2614463;36;20435;-52
2022/04/13 05:30:16;;;;;;;25.50;15.23;;;;;;;11.47;100.00;101357.09;2612613;31;20038;-49
2022/04/13 05:32:48;;;;;;;22.05;16.35;;;;;;;11.53;100.00;101361.94;2614113;36;20031;-54
2022/04/13 05:35:17;;;;;;;19.40;15.07;;;;;;;11.53;100.00;101359.25;2612894;36;20400;-53
2022/04/13 05:37:48;;;;;;;24.20;15.13;;;;;;;11.60;100.00;101372.19;2612875;36;20411;-52
2022/04/13 05:40:16;;;;;;;23.65;15.60;;;;;;;11.71;100.00;101366.75;2615225;31;20536;-50
2022/04/13 05:42:45;;;;;;;24.05;15.40;;;;;;;11.79;100.00;101369.63;2614249;36;20133;-52
2022/04/13 05:45:16;;;;;;;21.95;14.48;;;;;;;11.81;100.00;101375.78;2614004;36;20122;-53
2022/04/13 05:47:45;;;;;;;22.33;14.80;;;;;;;11.74;100.00;101379.97;2613636;36;20535;-54
2022/04/13 05:50:14;;;;;;;23.48;14.90;;;;;;;11.81;100.00;101380.31;2615136;36;20174;-56
2022/04/13 05:52:44;;;;;;;21.25;14.40;;;;;;;11.80;100.00;101387.53;2614801;36;20030;-54
2022/04/13 05:55:15;;;;;;;;;;;;;;;12.02;100.00;101383.03;2615027;31;20069;-53
2022/04/13 05:57:43;;;;;;;20.52;15.00;;;;;;;11.91;100.00;101398.28;2615554;31;20404;-54
2022/04/13 06:00:13;;;;;;;23.77;15.73;;;;;;;11.93;100.00;101387.38;2614579;36;20110;-55
2022/04/13 06:02:42;;;;;;;25.30;15.27;;;;;;;12.08;100.00;101398.69;2614928;36;20327;-53
2022/04/13 06:05:11;;;;;;;;;;;;;;;12.11;100.00;101398.41;2615222;36;20172;-57
2022/04/13 06:07:40;;;;;;;28.83;15.43;;;;;;;12.14;100.00;101402.72;2612561;36;19993;-54
2022/04/13 06:10:09;;;;;;;29.52;15.85;;;;;;;12.15;100.00;101401.72;2614424;36;20022;-55
2022/04/13 06:12:40;;;;;;;21.55;16.10;;;;;;;12.26;100.00;101402.50;2614329;36;20165;-53
2022/04/13 06:15:11;;;;;;;25.63;15.10;;;;;;;12.24;100.00;101403.63;2614635;36;20035;-53
2022/04/13 06:17:39;;;;;;;19.35;15.75;;;;;;;12.22;100.00;101419.06;2615351;36;20555;-57
2022/04/13 06:20:09;;;;;;;22.13;15.45;;;;;;;12.36;100.00;101417.88;2614626;36;20034;-54
2022/04/13 06:22:43;;;;;;;20.48;14.43;;;;;;;12.33;100.00;101423.56;2614557;36;20034;-53
2022/04/13 06:25:13;;;;;;;21.98;17.00;;;;;;;12.26;100.00;101413.28;2615465;36;20218;-58
2022/04/13 06:27:44;;;;;;;21.73;15.45;;;;;;;12.54;100.00;101418.09;2615295;36;20038;-55
2022/04/13 06:30:14;;;;;;;27.13;16.60;;;;;;;12.53;100.00;101425.38;2615503;36;20038;-53
2022/04/13 06:32:44;;;;;;;23.75;16.58;;;;;;;12.58;100.00;101425.78;2615457;36;20510;-53
2022/04/13 06:35:14;;;;;;;23.15;15.98;;;;;;;12.71;100.00;101428.28;2614529;36;20038;-57
2022/04/13 06:37:45;;;;;;;19.50;15.73;;;;;;;12.46;100.00;101436.84;2614911;36;20435;-54
2022/04/13 06:40:15;;;;;;;21.17;15.60;;;;;;;12.44;100.00;101442.38;2615256;36;20534;-54
2022/04/13 06:42:47;;;;;;;23.83;16.55;;;;;;;12.63;100.00;101436.19;2615073;36;20035;-54
2022/04/13 06:45:17;;;;;;;23.73;17.13;;;;;;;12.69;100.00;101437.50;2614458;36;20030;-52
2022/04/13 06:47:48;;;;;;;25.05;17.05;;;;;;;12.79;100.00;101446.50;2615264;36;20026;-52
2022/04/13 06:50:16;;;;;;;23.60;16.05;;;;;;;12.87;100.00;101448.53;2614650;36;20705;-52
2022/04/13 06:52:45;;;;;;;24.15;16.55;;;;;;;13.04;100.00;101452.41;2614384;36;20069;-55
2022/04/13 06:55:13;;;;;;;;;;;;;;;13.03;100.00;101443.47;2615535;31;20499;-54
2022/04/13 06:57:42;;;;;;;25.25;17.25;;;;;;;13.17;100.00;101453.00;2614964;36;20094;-53
2022/04/13 07:00:15;;;;;;;24.85;16.48;;;;;;;13.37;100.00;101455.78;2615066;31;20141;-52
2022/04/13 07:02:43;;;;;;;20.65;16.15;;;;;;;13.46;100.00;101455.81;2614365;31;20129;-52
2022/04/13 07:05:12;;;;;;;25.97;16.40;;;;;;;13.77;100.00;101460.25;2614891;36;20150;-55
2022/04/13 07:07:41;;;;;;;21.48;16.23;;;;;;;13.46;100.00;101460.38;2614307;36;20843;-54
2022/04/13 07:10:10;;;;;;;22.77;16.00;;;;;;;13.74;100.00;101465.94;2614608;36;20605;-56
2022/04/13 07:12:39;;;;;;;24.92;16.20;;;;;;;13.72;100.00;101471.50;2614328;36;20650;-56
2022/04/13 07:15:08;;;;;;;;;;;;;;;14.01;100.00;101476.88;2615410;36;20052;-53
2022/04/13 07:17:39;;;;;;;19.92;15.70;;;;;;;13.82;100.00;101475.06;2614772;36;19980;-54
2022/04/13 07:20:08;;;;;;;22.60;15.57;;;;;;;13.99;100.00;101473.47;2614643;36;20046;-53
2022/04/13 07:22:44;;;;;;;21.70;15.13;;;;;;;14.01;100.00;101482.28;2614243;36;20173;-53
2022/04/13 07:25:13;;;;;;;18.20;13.13;;;;;;;14.07;100.00;101485.44;2615523;31;20443;-53
2022/04/13 07:27:41;;;;;;;22.15;13.88;;;;;;;14.27;100.00;101484.44;2615282;31;20062;-54
2022/04/13 07:30:10;;;;;;;19.17;12.70;;;;;;;14.34;100.00;101490.13;2614981;36;20093;-52
2022/04/13 07:32:42;;;;;;;16.58;11.95;;;;;;;14.50;100.00;101497.63;2614321;36;20034;-53
2022/04/13 07:35:11;;;;;;;19.95;12.63;;;;;;;14.50;100.00;101494.91;2614617;36;20129;-51
2022/04/13 07:37:39;;;;;;;;;;;;;;;14.65;100.00;101498.91;2614733;36;20122;-55
2022/04/13 07:40:11;;;;;;;18.00;11.90;;;;;;;14.79;100.00;101496.72;2614733;36;19962;-54
2022/04/13 07:42:40;;;;;;;17.23;11.98;;;;;;;14.99;100.00;101498.34;2614416;36;20030;-53
2022/04/13 07:45:09;;;;;;;21.20;11.82;;;;;;;14.96;100.00;101501.38;2614954;36;20030;-54
2022/04/13 07:47:40;;;;;;;16.38;11.73;;;;;;;14.73;100.00;101494.63;2614740;36;20101;-55
2022/04/13 07:50:12;;;;;;;19.38;11.82;;;;;;;14.67;100.00;101496.91;2615358;31;20494;-54
2022/04/13 07:52:41;;;;;;;14.80;10.77;;;;;;;14.99;100.00;101509.19;2613816;36;20035;-56
2022/04/13 07:55:10;;;;;;;18.63;11.10;;;;;;;14.89;100.00;101505.69;2615412;31;20509;-57
2022/04/13 07:57:39;;;;;;;19.90;11.68;;;;;;;14.83;100.00;101508.97;2614510;36;20053;-57
2022/04/13 08:00:09;;;;;;;18.05;11.38;;;;;;;14.81;100.00;101514.56;2614029;36;20042;-53
2022/04/13 08:02:42;;;;;;;14.80;10.52;;;;;;;14.82;100.00;101518.09;2614043;36;20089;-54
2022/04/13 08:05:12;;;;;;;18.75;11.43;;;;;;;14.89;100.00;101511.09;2614768;36;20113;-52
2022/04/13 08:07:40;;;;;;;16.73;10.77;;;;;;;14.86;100.00;101508.69;2614133;36;20030;-54
2022/04/13 08:10:09;;;;;;;16.95;11.48;;;;;;;14.89;100.00;101516.50;2613730;36;20042;-55
2022/04/13 08:12:39;;;;;;;18.23;11.48;;;;;;;14.82;100.00;101513.53;2614685;36;20110;-50
2022/04/13 08:15:08;;;;;;;16.85;11.93;;;;;;;14.82;100.00;101520.81;2614984;36;20026;-52
2022/04/13 08:17:38;;;;;;;17.45;11.10;;;;;;;14.80;100.00;101529.09;2614384;36;20126;-53
2022/04/13 08:20:12;;;;;;;17.05;10.73;;;;;;;14.84;100.00;101526.94;2613970;36;20176;-53
2022/04/13 08:22:40;;;;;;;16.52;11.52;;;;;;;14.94;100.00;101526.91;2614506;36;20155;-51
2022/04/13 08:25:09;;;;;;;18.40;11.70;;;;;;;14.98;100.00;101540.00;2615467;36;20605;-55
2022/04/13 08:27:37;;;;;;;17.05;11.82;;;;;;;15.29;100.00;101537.03;2615936;36;20038;-53
2022/04/13 08:30:07;;;;;;;19.73;11.67;;;;;;;15.31;100.00;101536.88;2614638;31;20125;-51
2022/04/13 08:32:36;;;;;;;17.30;10.55;;;;;;;15.13;100.00;101543.09;2615677;36;21032;-53
2022/04/13 08:35:05;;;;;;;21.95;11.80;;;;;;;15.08;100.00;101539.97;2615064;36;20030;-52
2022/04/13 08:37:36;;;;;;;18.60;11.18;;;;;;;15.31;100.00;101543.16;2615117;36;20034;-54
2022/04/13 08:40:05;;;;;;;14.85;10.77;;;;;;;15.47;100.00;101544.34;2615527;31;20105;-52
2022/04/13 08:42:44;;;;;;;14.60;9.80;;;;;;;15.81;100.00;101547.34;2616256;36;20499;-55
2022/04/13 08:45:21;;;;;;;17.40;10.68;;;;;;;15.54;100.00;101542.75;2615259;36;20085;-54
2022/04/13 08:47:56;;;;;;;13.27;10.02;;;;;;;15.39;100.00;101542.41;2615756;36;20030;-52
2022/04/13 08:50:27;;;;;;;19.65;10.25;;;;;;;15.50;100.00;101550.34;2614534;36;20749;-53
2022/04/13 08:53:02;;;;;;;14.52;9.55;;;;;;;15.40;100.00;101547.69;2614807;36;20647;-54
2022/04/13 08:55:32;;;;;;;19.38;9.75;;;;;;;15.57;100.00;101547.88;2615081;36;20057;-52
2022/04/13 08:58:10;;;;;;;13.02;8.60;;;;;;;15.92;100.00;101549.81;2613997;36;20125;-56
2022/04/13 09:00:43;;;;;;;15.88;9.63;;;;;;;15.66;100.00;101548.81;2614818;36;20142;-51
2022/04/13 09:03:25;;;;;;;14.13;7.85;;;;;;;15.88;100.00;101542.97;2614925;36;20026;-55
2022/04/13 09:05:58;;;;;;;10.27;6.65;;;;;;;16.19;100.00;101539.03;2615427;36;20030;-53
2022/04/13 09:08:37;;;;;;;10.65;7.68;;;;;;;16.46;100.00;101538.91;2614679;36;20141;-53
2022/04/13 09:11:06;;;;;;;14.40;9.00;;;;;;;16.57;100.00;101542.38;2615024;36;20031;-51
2022/04/13 09:13:35;;;;;;;14.18;8.38;;;;;;;16.89;100.00;101540.94;2615320;36;20578;-56
2022/04/13 09:16:05;;;;;;;11.60;7.75;;;;;;;17.33;100.00;101551.69;2615642;36;20031;-56
2022/04/13 09:18:33;;;;;;;12.68;6.90;;;;;;;17.05;100.00;101560.06;2615237;36;20057;-50
2022/04/13 09:21:02;;;;;;;13.20;6.80;;;;;;;17.48;100.00;101552.75;2615087;36;20058;-55
2022/04/13 09:23:34;;;;;;;11.02;6.93;;;;;;;17.55;100.00;101549.38;2614304;36;20295;-55
2022/04/13 09:26:04;;;;;;;11.13;6.55;;;;;;;17.64;100.00;101553.84;2614605;36;23647;-54
2022/04/13 09:28:32;;;;;;;9.52;6.35;;;;;;;17.54;100.00;101558.56;2613765;31;20085;-53
2022/04/13 09:31:00;;;;;;;10.43;6.00;;;;;;;17.59;100.00;101556.19;2613657;36;20161;-56
2022/04/13 09:33:29;;;;;;;13.03;6.60;;;;;;;17.82;100.00;101560.00;2613821;36;21017;-53
2022/04/13 09:35:57;;;;;;;9.23;5.63;;;;;;;17.97;100.00;101546.59;2615001;36;20295;-55
2022/04/13 09:38:26;;;;;;;11.35;5.30;;;;;;;18.20;100.00;101560.41;2614475;31;20165;-54
2022/04/13 09:41:09;;;;;;;10.68;5.75;;;;;;;17.86;100.00;101571.41;2615091;31;20884;-54
2022/04/13 09:43:38;;;;;;;9.30;6.05;;;;;;;17.55;100.00;101558.41;2615103;31;20434;-53
2022/04/13 09:46:08;;;;;;;;;;;;;;;17.68;100.00;101557.91;2615330;36;20061;-51
2022/04/13 09:48:36;;;;;;;11.02;5.20;;;;;;;17.90;100.00;101555.63;2615184;36;19957;-54
2022/04/13 09:51:05;;;;;;;11.00;6.30;;;;;;;17.45;100.00;101561.25;2614885;36;20066;-55
2022/04/13 09:53:33;;;;;;;10.95;5.82;;;;;;;17.80;100.00;101566.63;2614835;36;20041;-56
2022/04/13 09:56:04;;;;;;;14.00;6.17;;;;;;;17.43;100.00;101576.03;2614959;36;20077;-52
2022/04/13 09:58:33;;;;;;;14.88;6.53;;;;;;;17.19;100.00;101580.34;2615052;36;20030;-52
2022/04/13 10:01:06;;;;;;;;;;;;;;;17.23;100.00;101591.78;2615004;36;20077;-51
2022/04/13 10:03:34;;;;;;;11.77;6.05;;;;;;;17.32;100.00;101596.22;2615157;31;19954;-54
2022/04/13 10:06:02;;;;;;;16.17;6.13;;;;;;;17.34;100.00;101599.63;2614754;31;20077;-53
2022/04/13 10:08:31;;;;;;;12.55;6.18;;;;;;;17.21;100.00;101607.38;2613878;36;20358;-56
2022/04/13 10:11:00;;;;;;;;;;;;;;;16.99;100.00;101612.38;2615255;36;20030;-56
2022/04/13 10:13:38;;;;;;;10.10;5.97;;;;;;;17.10;100.00;101609.34;2613645;36;19958;-52
2022/04/13 10:16:09;;;;;;;11.87;5.87;;;;;;;17.28;100.00;101622.03;2613975;36;20064;-53
2022/04/13 10:18:56;;;;;;;9.43;4.93;;;;;;;17.34;100.00;101621.41;2613489;36;20034;-54
2022/04/13 10:21:45;;;;;;;7.55;4.55;;;;;;;17.46;100.00;101620.13;2613286;36;20118;-53
2022/04/13 10:24:26;;;;;;;9.10;4.93;;;;;;;17.10;100.00;101616.69;2612937;36;20045;-56
2022/04/13 10:27:05;;;;;;;11.43;5.85;;;;;;;17.06;100.00;101613.41;2613336;36;20054;-54
2022/04/13 10:29:37;;;;;;;11.50;5.35;;;;;;;17.20;100.00;101613.84;2612627;36;20030;-61
2022/04/13 10:32:08;;;;;;;13.38;5.63;;;;;;;17.31;100.00;101622.59;2613951;36;20030;-51
2022/04/13 10:34:37;;;;;;;11.40;5.35;;;;;;;17.49;100.00;101624.34;2613352;36;20061;-55
2022/04/13 10:37:06;;;;;;;9.57;4.32;;;;;;;17.35;100.00;101623.09;2613661;36;20464;-54
2022/04/13 10:39:34;;;;;;;9.25;3.50;;;;;;;17.04;100.00;101636.38;2613091;36;20153;-54
2022/04/13 10:42:05;;;;;;;8.73;3.67;;;;;;;16.89;100.00;101644.25;2613778;36;20531;-54
2022/04/13 10:44:39;;;;;;;8.13;3.33;;;;;;;16.91;100.00;101642.22;2614162;36;20054;-51
2022/04/13 10:47:08;;;;;;;7.97;3.78;;;;;;;16.96;100.00;101639.84;2613099;36;20085;-58
2022/04/13 10:49:45;;;;;;;6.88;3.47;;;;;;;16.99;100.00;101634.97;2613103;36;20038;-57
2022/04/13 10:52:19;;;;;;;10.15;3.92;;;;;;;16.87;100.00;101651.66;2613051;36;20575;-55
2022/04/13 10:54:53;;;;;;;9.48;3.25;;;;;;;16.71;100.00;101655.09;2613069;36;20042;-56
2022/04/13 10:57:24;;;;;;;10.40;3.53;;;;;;;16.86;100.00;101655.38;2612929;36;20663;-54
2022/04/13 10:59:56;;;;;;;9.45;4.35;;;;;;;17.07;100.00;101655.94;2613981;36;20116;-55
2022/04/13 11:02:32;;;;;;;9.85;3.55;;;;;;;16.93;100.00;101661.94;2612657;31;20209;-57
2022/04/13 11:05:01;;;;;;;9.95;4.82;;;;;;;17.05;100.00;101666.13;2614386;36;20027;-51
2022/04/13 11:07:29;;;;;;;;;;;;;;;17.13;100.00;101657.16;2613330;36;20126;-57
2022/04/13 11:10:00;;;;;;;12.00;5.22;;;;;;;17.09;100.00;101659.34;2614482;36;20042;-52
2022/04/13 11:12:29;;;;;;;13.60;5.30;;;;;;;17.28;100.00;101671.03;2614445;36;20224;-51
2022/04/13 11:15:02;;;;;;;11.75;5.13;;;;;;;17.15;100.00;101669.59;2614677;36;20026;-53
2022/04/13 11:17:31;;;;;;;9.00;5.60;;;;;;;17.37;100.00;101670.03;2614310;36;20544;-54
2022/04/13 11:20:21;;;;;;;11.20;4.97;;;;;;;17.22;100.00;101653.47;2614106;36;20122;-53
2022/04/13 11:23:10;;;;;;;12.02;4.70;;;;;;;17.01;100.00;101653.84;2613593;36;20430;-54